This is the latest recevied weather packets stored in our database for station/object YO6SAY-10. If no packets are shown the sender has not sent any weather packets the latest 10 day(s).
| Time | Temp. | Humidity | Pressure | Rain* | Wind** | Luminosity | Snow |
|---|---|---|---|---|---|---|---|
| 1777914065 | 18.89° C | 45% | 948.5 hPa | - | - | - | - |
| 1777913165 | 20.56° C | 44% | 948.2 hPa | - | - | - | - |
| 1777912265 | 22.22° C | 42% | 948.1 hPa | - | - | - | - |
| 1777911364 | 21.11° C | 42% | 948.1 hPa | - | - | - | - |
| 1777910464 | 19.44° C | 43% | 948 hPa | - | - | - | - |
| 1777909564 | 19.44° C | 44% | 948 hPa | - | - | - | - |
| 1777908664 | 20° C | 43% | 948 hPa | - | - | - | - |
| 1777907764 | 21.67° C | 41% | 948.1 hPa | - | - | - | - |
| 1777906864 | 20.56° C | 42% | 948 hPa | - | - | - | - |
| 1777905964 | 20° C | 42% | 948.4 hPa | - | - | - | - |
| 1777905063 | 22.22° C | 41% | 948.3 hPa | - | - | - | - |
| 1777904162 | 22.22° C | 40% | 948.3 hPa | - | - | - | - |
| 1777903261 | 24.44° C | 38% | 948.6 hPa | - | - | - | - |
| 1777902361 | 21.67° C | 39% | 948.6 hPa | - | - | - | - |
| 1777901460 | 24.44° C | 38% | 948.7 hPa | - | - | - | - |
| 1777900560 | 27.78° C | 34% | 948.8 hPa | - | - | - | - |
| 1777899659 | 24.44° C | 36% | 949.1 hPa | - | - | - | - |
| 1777898759 | 20° C | 40% | 949.1 hPa | - | - | - | - |
| 1777897859 | 23.33° C | 38% | 949.2 hPa | - | - | - | - |
| 1777896959 | 22.78° C | 39% | 949.6 hPa | - | - | - | - |
| 1777896059 | 22.78° C | 39% | 949.6 hPa | - | - | - | - |
| 1777895159 | 26.11° C | 36% | 949.7 hPa | - | - | - | - |
| 1777894259 | 23.33° C | 39% | 949.9 hPa | - | - | - | - |
| 1777893359 | 17.78° C | 43% | 950 hPa | - | - | - | - |
| 1777892458 | 16.11° C | 44% | 950.1 hPa | - | - | - | - |
* Rain since midnight (hover to see other rain measurements)
** Current wind speed in m/s (hover to see current wind gust speed)